Jandavid S — V2OC1 — position and weather

sailwx.info

Track history (hours):
 
Tides and Currents Weather Stations Pressure Air Temp Water Temp Dewpoint Dewpoint Depression Visibility Wind Speed Wind Dir Waves Ship Positions

Jandavid S

Last reported at 2017-Dec-01 10:14 UTC. Time now 2018-Feb-23 14:51 UTC.
Position N 01°16' E 104°13'.
Warning: this ship's position is months out of date.

Length 200 m; draft 7.8 m.

Type: Cargo ship. MMSI: 304513000.

Date/timePositionNaut miles runAvg speedWind from/ knotsBaromVisibWave heightAir tempDewpointWater temp
2017-Dec-01 10:14N 01°16' E 104°13'612.3
2017-Dec-01 09:47N 01°16' E 104°08'512.9
2017-Dec-01 09:25N 01°15' E 104°03'513.5
2017-Dec-01 09:00N 01°14' E 103°57'3 5.6
2017-Dec-01 08:30N 01°15' E 103°55'1 2.0
2017-Dec-01 07:51N 01°16' E 103°54'0 0.0
2017-Dec-01 07:30N 01°16' E 103°54'0 0.0
2017-Dec-01 06:57N 01°16' E 103°54'0 0.0
2017-Dec-01 06:30N 01°16' E 103°54'0 0.0
2017-Dec-01 05:54N 01°16' E 103°54'0 0.0
2017-Dec-01 05:30N 01°16' E 103°54'0 0.0
2017-Dec-01 05:00N 01°16' E 103°54'0 0.0
2017-Dec-01 04:18N 01°16' E 103°54'0 0.0
2017-Dec-01 04:00N 01°16' E 103°54'0 0.1
2017-Dec-01 03:30N 01°16' E 103°54'0 0.1
2017-Dec-01 02:54N 01°16' E 103°54'0 0.0
2017-Dec-01 02:18N 01°16' E 103°54'0 0.4
2017-Dec-01 02:00N 01°16' E 103°54'1 2.4
2017-Dec-01 01:30N 01°15' E 103°53'2 3.9
2017-Dec-01 01:00N 01°13' E 103°54'2 3.3
2017-Dec-01 00:30N 01°12' E 103°53'4 8.3
2017-Dec-01 00:00N 01°10' E 103°49'3 6.9
2017-Nov-30 23:30N 01°08' E 103°46'2 4.9
2017-Nov-30 23:00N 01°06' E 103°45'3 5.0
2017-Nov-30 22:30N 01°05' E 103°43'3 5.6
2017-Nov-30 22:00N 01°03' E 103°41'4 8.0
2017-Nov-30 21:30N 01°04' E 103°37'5 9.6
2017-Nov-30 21:00N 01°06' E 103°33'5 9.4
2017-Nov-30 20:30N 01°09' E 103°28'510.0
2017-Nov-30 19:59N 01°12' E 103°24'5 9.6
2017-Nov-30 19:29N 01°15' E 103°21'1210.1
2017-Nov-30 18:17N 01°23' E 103°11'  
Track history (hours):
 
Tides and Currents Weather Stations Pressure Air Temp Water Temp Dewpoint Dewpoint Depression Visibility Wind Speed Wind Dir Waves Ship Positions

Jandavid S

Last reported at 2017-Dec-01 10:14 UTC. Time now 2018-Feb-23 14:51 UTC.
Position N 01°16' E 104°13'.
Warning: this ship's position is months out of date.

Length 200 m; draft 7.8 m.

Type: Cargo ship. MMSI: 304513000.

Date/timePositionNaut miles runAvg speedWind from/ knotsBaromVisibWave heightAir tempDewpointWater temp
2017-Dec-01 10:14N 01°16' E 104°13'612.3
2017-Dec-01 09:47N 01°16' E 104°08'512.9
2017-Dec-01 09:25N 01°15' E 104°03'513.5
2017-Dec-01 09:00N 01°14' E 103°57'3 5.6
2017-Dec-01 08:30N 01°15' E 103°55'1 2.0
2017-Dec-01 07:51N 01°16' E 103°54'0 0.0
2017-Dec-01 07:30N 01°16' E 103°54'0 0.0
2017-Dec-01 06:57N 01°16' E 103°54'0 0.0
2017-Dec-01 06:30N 01°16' E 103°54'0 0.0
2017-Dec-01 05:54N 01°16' E 103°54'0 0.0
2017-Dec-01 05:30N 01°16' E 103°54'0 0.0
2017-Dec-01 05:00N 01°16' E 103°54'0 0.0
2017-Dec-01 04:18N 01°16' E 103°54'0 0.0
2017-Dec-01 04:00N 01°16' E 103°54'0 0.1
2017-Dec-01 03:30N 01°16' E 103°54'0 0.1
2017-Dec-01 02:54N 01°16' E 103°54'0 0.0
2017-Dec-01 02:18N 01°16' E 103°54'0 0.4
2017-Dec-01 02:00N 01°16' E 103°54'1 2.4
2017-Dec-01 01:30N 01°15' E 103°53'2 3.9
2017-Dec-01 01:00N 01°13' E 103°54'2 3.3
2017-Dec-01 00:30N 01°12' E 103°53'4 8.3
2017-Dec-01 00:00N 01°10' E 103°49'3 6.9
2017-Nov-30 23:30N 01°08' E 103°46'2 4.9
2017-Nov-30 23:00N 01°06' E 103°45'3 5.0
2017-Nov-30 22:30N 01°05' E 103°43'3 5.6
2017-Nov-30 22:00N 01°03' E 103°41'4 8.0
2017-Nov-30 21:30N 01°04' E 103°37'5 9.6
2017-Nov-30 21:00N 01°06' E 103°33'5 9.4
2017-Nov-30 20:30N 01°09' E 103°28'510.0
2017-Nov-30 19:59N 01°12' E 103°24'5 9.6
2017-Nov-30 19:29N 01°15' E 103°21'1210.1
2017-Nov-30 18:17N 01°23' E 103°11'  

Dump ship's entire track history